sensor_id;sensor_type;location;lat;lon;timestamp;P1;durP1;ratioP1;P2;durP2;ratioP2
9222;SDS011;7557;51.698;3.942;2023-04-24T00:01:48;6.33;;;5.27;;
9222;SDS011;7557;51.698;3.942;2023-04-24T00:04:16;6.27;;;5.00;;
9222;SDS011;7557;51.698;3.942;2023-04-24T00:06:44;6.33;;;5.47;;
9222;SDS011;7557;51.698;3.942;2023-04-24T00:09:14;4.80;;;4.37;;
9222;SDS011;7557;51.698;3.942;2023-04-24T00:11:43;4.67;;;4.33;;
9222;SDS011;7557;51.698;3.942;2023-04-24T00:14:10;5.67;;;3.87;;
9222;SDS011;7557;51.698;3.942;2023-04-24T00:16:37;4.63;;;4.13;;
9222;SDS011;7557;51.698;3.942;2023-04-24T00:19:05;4.87;;;4.30;;
9222;SDS011;7557;51.698;3.942;2023-04-24T00:21:32;4.80;;;4.33;;
9222;SDS011;7557;51.698;3.942;2023-04-24T00:23:59;7.80;;;5.57;;
9222;SDS011;7557;51.698;3.942;2023-04-24T00:26:26;10.90;;;6.47;;
9222;SDS011;7557;51.698;3.942;2023-04-24T00:28:55;10.10;;;7.70;;
9222;SDS011;7557;51.698;3.942;2023-04-24T00:31:22;11.67;;;8.67;;
9222;SDS011;7557;51.698;3.942;2023-04-24T00:33:49;11.97;;;9.33;;
9222;SDS011;7557;51.698;3.942;2023-04-24T00:36:16;12.47;;;10.07;;
9222;SDS011;7557;51.698;3.942;2023-04-24T00:38:45;12.73;;;9.77;;
9222;SDS011;7557;51.698;3.942;2023-04-24T00:41:12;17.33;;;11.53;;
9222;SDS011;7557;51.698;3.942;2023-04-24T00:43:40;17.90;;;13.47;;
9222;SDS011;7557;51.698;3.942;2023-04-24T00:46:09;17.37;;;13.10;;
9222;SDS011;7557;51.698;3.942;2023-04-24T00:48:45;19.87;;;13.50;;
9222;SDS011;7557;51.698;3.942;2023-04-24T00:51:13;16.77;;;13.03;;
9222;SDS011;7557;51.698;3.942;2023-04-24T00:53:40;15.17;;;11.97;;
9222;SDS011;7557;51.698;3.942;2023-04-24T00:56:08;19.23;;;11.80;;
9222;SDS011;7557;51.698;3.942;2023-04-24T00:58:35;19.53;;;10.80;;
9222;SDS011;7557;51.698;3.942;2023-04-24T01:01:03;15.70;;;10.13;;
9222;SDS011;7557;51.698;3.942;2023-04-24T01:03:33;12.50;;;9.80;;
9222;SDS011;7557;51.698;3.942;2023-04-24T01:06:02;17.10;;;10.00;;
9222;SDS011;7557;51.698;3.942;2023-04-24T01:08:30;15.40;;;11.27;;
9222;SDS011;7557;51.698;3.942;2023-04-24T01:10:59;19.97;;;12.70;;
9222;SDS011;7557;51.698;3.942;2023-04-24T01:13:27;18.27;;;11.40;;
9222;SDS011;7557;51.698;3.942;2023-04-24T01:15:55;15.37;;;8.47;;
9222;SDS011;7557;51.698;3.942;2023-04-24T01:18:22;10.07;;;5.87;;
9222;SDS011;7557;51.698;3.942;2023-04-24T01:20:51;10.13;;;4.70;;
9222;SDS011;7557;51.698;3.942;2023-04-24T01:23:24;6.63;;;3.43;;
9222;SDS011;7557;51.698;3.942;2023-04-24T01:25:52;5.63;;;2.97;;
9222;SDS011;7557;51.698;3.942;2023-04-24T01:28:19;8.93;;;3.60;;
9222;SDS011;7557;51.698;3.942;2023-04-24T01:30:47;7.00;;;3.10;;
9222;SDS011;7557;51.698;3.942;2023-04-24T01:33:14;8.07;;;4.10;;
9222;SDS011;7557;51.698;3.942;2023-04-24T01:35:42;12.40;;;4.53;;
9222;SDS011;7557;51.698;3.942;2023-04-24T01:38:10;12.73;;;4.80;;
9222;SDS011;7557;51.698;3.942;2023-04-24T01:40:38;9.53;;;4.90;;
9222;SDS011;7557;51.698;3.942;2023-04-24T01:43:06;8.57;;;4.53;;
9222;SDS011;7557;51.698;3.942;2023-04-24T01:45:34;9.33;;;4.73;;
9222;SDS011;7557;51.698;3.942;2023-04-24T01:48:01;12.60;;;4.93;;
9222;SDS011;7557;51.698;3.942;2023-04-24T01:50:28;11.63;;;5.37;;
9222;SDS011;7557;51.698;3.942;2023-04-24T01:52:55;13.27;;;5.03;;
9222;SDS011;7557;51.698;3.942;2023-04-24T01:55:22;9.70;;;4.87;;
9222;SDS011;7557;51.698;3.942;2023-04-24T01:57:51;9.83;;;4.60;;
9222;SDS011;7557;51.698;3.942;2023-04-24T02:00:21;9.27;;;4.40;;
9222;SDS011;7557;51.698;3.942;2023-04-24T02:02:49;10.60;;;3.93;;
9222;SDS011;7557;51.698;3.942;2023-04-24T02:05:16;6.60;;;3.03;;
9222;SDS011;7557;51.698;3.942;2023-04-24T02:07:43;4.60;;;2.80;;
9222;SDS011;7557;51.698;3.942;2023-04-24T02:10:10;5.43;;;2.50;;
9222;SDS011;7557;51.698;3.942;2023-04-24T02:12:37;2.90;;;2.20;;
9222;SDS011;7557;51.698;3.942;2023-04-24T02:15:06;2.97;;;2.63;;
9222;SDS011;7557;51.698;3.942;2023-04-24T02:17:34;2.70;;;2.60;;
9222;SDS011;7557;51.698;3.942;2023-04-24T02:20:01;6.57;;;3.80;;
9222;SDS011;7557;51.698;3.942;2023-04-24T02:22:29;4.07;;;3.80;;
9222;SDS011;7557;51.698;3.942;2023-04-24T02:24:56;6.70;;;3.83;;
9222;SDS011;7557;51.698;3.942;2023-04-24T02:27:24;2.80;;;2.70;;
9222;SDS011;7557;51.698;3.942;2023-04-24T02:29:51;2.80;;;2.50;;
9222;SDS011;7557;51.698;3.942;2023-04-24T02:32:20;2.77;;;2.57;;
9222;SDS011;7557;51.698;3.942;2023-04-24T02:34:47;3.43;;;2.17;;
9222;SDS011;7557;51.698;3.942;2023-04-24T02:37:14;2.13;;;1.80;;
9222;SDS011;7557;51.698;3.942;2023-04-24T02:39:41;3.93;;;2.23;;
9222;SDS011;7557;51.698;3.942;2023-04-24T02:42:09;5.43;;;3.40;;
9222;SDS011;7557;51.698;3.942;2023-04-24T02:44:36;4.57;;;3.40;;
9222;SDS011;7557;51.698;3.942;2023-04-24T02:47:03;11.87;;;4.20;;
9222;SDS011;7557;51.698;3.942;2023-04-24T02:49:32;9.70;;;4.00;;
9222;SDS011;7557;51.698;3.942;2023-04-24T02:51:59;11.73;;;4.40;;
9222;SDS011;7557;51.698;3.942;2023-04-24T02:54:26;15.40;;;4.67;;
9222;SDS011;7557;51.698;3.942;2023-04-24T02:56:53;9.07;;;4.57;;
9222;SDS011;7557;51.698;3.942;2023-04-24T02:59:22;4.27;;;3.57;;
9222;SDS011;7557;51.698;3.942;2023-04-24T03:01:49;9.60;;;4.10;;
9222;SDS011;7557;51.698;3.942;2023-04-24T03:04:16;8.43;;;4.53;;
9222;SDS011;7557;51.698;3.942;2023-04-24T03:06:46;9.03;;;4.80;;
9222;SDS011;7557;51.698;3.942;2023-04-24T03:09:14;6.57;;;5.33;;
9222;SDS011;7557;51.698;3.942;2023-04-24T03:11:41;8.00;;;4.50;;
9222;SDS011;7557;51.698;3.942;2023-04-24T03:14:08;8.83;;;4.40;;
9222;SDS011;7557;51.698;3.942;2023-04-24T03:16:35;6.43;;;4.20;;
9222;SDS011;7557;51.698;3.942;2023-04-24T03:19:03;15.60;;;6.47;;
9222;SDS011;7557;51.698;3.942;2023-04-24T03:21:30;9.30;;;4.97;;
9222;SDS011;7557;51.698;3.942;2023-04-24T03:23:59;10.07;;;6.70;;
9222;SDS011;7557;51.698;3.942;2023-04-24T03:26:26;8.73;;;5.93;;
9222;SDS011;7557;51.698;3.942;2023-04-24T03:28:53;10.07;;;6.00;;
9222;SDS011;7557;51.698;3.942;2023-04-24T03:31:21;12.37;;;6.80;;
9222;SDS011;7557;51.698;3.942;2023-04-24T03:33:48;11.30;;;6.77;;
9222;SDS011;7557;51.698;3.942;2023-04-24T03:36:16;11.37;;;7.70;;
9222;SDS011;7557;51.698;3.942;2023-04-24T03:38:44;9.57;;;6.97;;
9222;SDS011;7557;51.698;3.942;2023-04-24T03:41:12;13.40;;;7.33;;
9222;SDS011;7557;51.698;3.942;2023-04-24T03:43:40;10.70;;;6.70;;
9222;SDS011;7557;51.698;3.942;2023-04-24T03:46:07;13.93;;;8.13;;
9222;SDS011;7557;51.698;3.942;2023-04-24T03:48:34;12.33;;;7.47;;
9222;SDS011;7557;51.698;3.942;2023-04-24T03:51:02;16.07;;;8.27;;
9222;SDS011;7557;51.698;3.942;2023-04-24T03:53:29;15.43;;;7.80;;
9222;SDS011;7557;51.698;3.942;2023-04-24T03:55:56;18.37;;;8.40;;
9222;SDS011;7557;51.698;3.942;2023-04-24T03:58:25;9.00;;;7.47;;
9222;SDS011;7557;51.698;3.942;2023-04-24T04:00:52;16.60;;;8.63;;
9222;SDS011;7557;51.698;3.942;2023-04-24T04:03:19;13.43;;;7.90;;
9222;SDS011;7557;51.698;3.942;2023-04-24T04:05:47;14.47;;;8.67;;
9222;SDS011;7557;51.698;3.942;2023-04-24T04:08:14;17.13;;;9.77;;
9222;SDS011;7557;51.698;3.942;2023-04-24T04:10:41;20.40;;;9.97;;
9222;SDS011;7557;51.698;3.942;2023-04-24T04:13:08;18.07;;;11.07;;
9222;SDS011;7557;51.698;3.942;2023-04-24T04:15:37;14.70;;;10.23;;
9222;SDS011;7557;51.698;3.942;2023-04-24T04:18:04;19.20;;;10.30;;
9222;SDS011;7557;51.698;3.942;2023-04-24T04:20:31;14.80;;;9.17;;
9222;SDS011;7557;51.698;3.942;2023-04-24T04:22:58;13.43;;;10.87;;
9222;SDS011;7557;51.698;3.942;2023-04-24T04:25:25;21.13;;;11.23;;
9222;SDS011;7557;51.698;3.942;2023-04-24T04:27:54;22.63;;;11.20;;
9222;SDS011;7557;51.698;3.942;2023-04-24T04:30:23;18.90;;;10.73;;
9222;SDS011;7557;51.698;3.942;2023-04-24T04:32:52;20.80;;;11.40;;
9222;SDS011;7557;51.698;3.942;2023-04-24T04:35:19;16.73;;;10.03;;
9222;SDS011;7557;51.698;3.942;2023-04-24T04:37:46;26.73;;;13.60;;
9222;SDS011;7557;51.698;3.942;2023-04-24T04:40:13;22.93;;;13.70;;
9222;SDS011;7557;51.698;3.942;2023-04-24T04:42:41;19.33;;;12.70;;
9222;SDS011;7557;51.698;3.942;2023-04-24T04:45:11;16.80;;;11.67;;
9222;SDS011;7557;51.698;3.942;2023-04-24T04:47:38;21.87;;;12.93;;
9222;SDS011;7557;51.698;3.942;2023-04-24T04:50:07;24.27;;;12.00;;
9222;SDS011;7557;51.698;3.942;2023-04-24T04:52:35;16.47;;;11.33;;
9222;SDS011;7557;51.698;3.942;2023-04-24T04:55:03;18.50;;;10.60;;
9222;SDS011;7557;51.698;3.942;2023-04-24T04:57:30;16.17;;;11.30;;
9222;SDS011;7557;51.698;3.942;2023-04-24T04:59:57;18.90;;;11.00;;
9222;SDS011;7557;51.698;3.942;2023-04-24T05:02:25;14.27;;;10.50;;
9222;SDS011;7557;51.698;3.942;2023-04-24T05:04:52;20.47;;;10.03;;
9222;SDS011;7557;51.698;3.942;2023-04-24T05:07:20;21.73;;;10.43;;
9222;SDS011;7557;51.698;3.942;2023-04-24T05:09:48;16.63;;;9.57;;
9222;SDS011;7557;51.698;3.942;2023-04-24T05:12:16;14.70;;;9.87;;
9222;SDS011;7557;51.698;3.942;2023-04-24T05:14:43;17.70;;;9.33;;
9222;SDS011;7557;51.698;3.942;2023-04-24T05:17:10;11.63;;;8.10;;
9222;SDS011;7557;51.698;3.942;2023-04-24T05:19:38;16.23;;;9.00;;
9222;SDS011;7557;51.698;3.942;2023-04-24T05:22:05;17.43;;;8.77;;
9222;SDS011;7557;51.698;3.942;2023-04-24T05:24:33;15.23;;;9.80;;
9222;SDS011;7557;51.698;3.942;2023-04-24T05:27:00;16.93;;;8.53;;
9222;SDS011;7557;51.698;3.942;2023-04-24T05:29:29;27.07;;;10.03;;
9222;SDS011;7557;51.698;3.942;2023-04-24T05:31:58;13.57;;;8.27;;
9222;SDS011;7557;51.698;3.942;2023-04-24T05:34:25;8.47;;;6.37;;
9222;SDS011;7557;51.698;3.942;2023-04-24T05:36:53;16.57;;;7.83;;
9222;SDS011;7557;51.698;3.942;2023-04-24T05:39:20;20.57;;;9.43;;
9222;SDS011;7557;51.698;3.942;2023-04-24T05:41:49;18.30;;;8.43;;
9222;SDS011;7557;51.698;3.942;2023-04-24T05:44:16;15.77;;;7.80;;
9222;SDS011;7557;51.698;3.942;2023-04-24T05:46:43;10.70;;;7.40;;
9222;SDS011;7557;51.698;3.942;2023-04-24T05:49:10;18.73;;;8.33;;
9222;SDS011;7557;51.698;3.942;2023-04-24T05:51:37;17.93;;;7.97;;
9222;SDS011;7557;51.698;3.942;2023-04-24T05:54:05;21.57;;;7.73;;
9222;SDS011;7557;51.698;3.942;2023-04-24T05:56:32;15.83;;;7.77;;
9222;SDS011;7557;51.698;3.942;2023-04-24T05:59:01;18.93;;;8.20;;
9222;SDS011;7557;51.698;3.942;2023-04-24T06:01:28;16.50;;;6.50;;
9222;SDS011;7557;51.698;3.942;2023-04-24T06:03:56;13.47;;;6.73;;
9222;SDS011;7557;51.698;3.942;2023-04-24T06:06:23;9.10;;;6.87;;
9222;SDS011;7557;51.698;3.942;2023-04-24T06:08:51;14.10;;;5.77;;
9222;SDS011;7557;51.698;3.942;2023-04-24T06:11:18;12.63;;;5.40;;
9222;SDS011;7557;51.698;3.942;2023-04-24T06:13:45;9.03;;;5.60;;
9222;SDS011;7557;51.698;3.942;2023-04-24T06:16:14;13.23;;;6.37;;
9222;SDS011;7557;51.698;3.942;2023-04-24T06:18:41;15.80;;;5.47;;
9222;SDS011;7557;51.698;3.942;2023-04-24T06:21:08;16.67;;;5.60;;
9222;SDS011;7557;51.698;3.942;2023-04-24T06:23:35;19.23;;;5.87;;
9222;SDS011;7557;51.698;3.942;2023-04-24T06:26:03;13.87;;;5.03;;
9222;SDS011;7557;51.698;3.942;2023-04-24T06:28:30;10.50;;;4.17;;
9222;SDS011;7557;51.698;3.942;2023-04-24T06:30:57;11.37;;;4.97;;
9222;SDS011;7557;51.698;3.942;2023-04-24T06:33:26;21.70;;;5.63;;
9222;SDS011;7557;51.698;3.942;2023-04-24T06:35:53;18.50;;;6.07;;
9222;SDS011;7557;51.698;3.942;2023-04-24T06:38:21;12.67;;;4.20;;
9222;SDS011;7557;51.698;3.942;2023-04-24T06:40:49;10.73;;;5.33;;
9222;SDS011;7557;51.698;3.942;2023-04-24T06:43:16;12.90;;;4.03;;
9222;SDS011;7557;51.698;3.942;2023-04-24T06:45:44;12.07;;;4.77;;
9222;SDS011;7557;51.698;3.942;2023-04-24T06:48:12;10.07;;;4.43;;
9222;SDS011;7557;51.698;3.942;2023-04-24T06:50:40;14.27;;;4.57;;
9222;SDS011;7557;51.698;3.942;2023-04-24T06:53:08;9.77;;;5.00;;
9222;SDS011;7557;51.698;3.942;2023-04-24T06:55:37;8.07;;;3.10;;
9222;SDS011;7557;51.698;3.942;2023-04-24T06:58:05;13.90;;;4.90;;
9222;SDS011;7557;51.698;3.942;2023-04-24T07:00:33;7.90;;;3.07;;
9222;SDS011;7557;51.698;3.942;2023-04-24T07:03:00;9.47;;;4.17;;
9222;SDS011;7557;51.698;3.942;2023-04-24T07:05:28;11.13;;;4.40;;
9222;SDS011;7557;51.698;3.942;2023-04-24T07:07:56;11.43;;;4.20;;
9222;SDS011;7557;51.698;3.942;2023-04-24T07:10:24;8.60;;;3.60;;
9222;SDS011;7557;51.698;3.942;2023-04-24T07:12:53;11.10;;;3.93;;
9222;SDS011;7557;51.698;3.942;2023-04-24T07:15:21;13.60;;;3.73;;
9222;SDS011;7557;51.698;3.942;2023-04-24T07:17:48;12.30;;;3.70;;
9222;SDS011;7557;51.698;3.942;2023-04-24T07:20:15;12.03;;;4.30;;
9222;SDS011;7557;51.698;3.942;2023-04-24T07:22:43;11.27;;;3.80;;
9222;SDS011;7557;51.698;3.942;2023-04-24T07:25:11;7.37;;;3.43;;
9222;SDS011;7557;51.698;3.942;2023-04-24T07:27:39;13.13;;;3.80;;
9222;SDS011;7557;51.698;3.942;2023-04-24T07:30:06;8.57;;;3.80;;
9222;SDS011;7557;51.698;3.942;2023-04-24T07:32:34;9.83;;;3.83;;
9222;SDS011;7557;51.698;3.942;2023-04-24T07:35:01;15.03;;;3.90;;
9222;SDS011;7557;51.698;3.942;2023-04-24T07:37:29;10.43;;;3.60;;
9222;SDS011;7557;51.698;3.942;2023-04-24T07:39:56;4.27;;;2.87;;
9222;SDS011;7557;51.698;3.942;2023-04-24T07:42:25;6.83;;;3.00;;
9222;SDS011;7557;51.698;3.942;2023-04-24T07:44:52;5.70;;;2.47;;
9222;SDS011;7557;51.698;3.942;2023-04-24T07:47:19;5.17;;;2.40;;
9222;SDS011;7557;51.698;3.942;2023-04-24T07:49:47;7.93;;;3.03;;
9222;SDS011;7557;51.698;3.942;2023-04-24T07:52:14;9.77;;;2.70;;
9222;SDS011;7557;51.698;3.942;2023-04-24T07:54:41;6.30;;;2.90;;
9222;SDS011;7557;51.698;3.942;2023-04-24T07:57:09;6.20;;;2.40;;
9222;SDS011;7557;51.698;3.942;2023-04-24T07:59:37;10.43;;;3.27;;
9222;SDS011;7557;51.698;3.942;2023-04-24T08:02:05;9.63;;;3.10;;
9222;SDS011;7557;51.698;3.942;2023-04-24T08:04:32;5.83;;;2.37;;
9222;SDS011;7557;51.698;3.942;2023-04-24T08:07:00;3.97;;;1.90;;
9222;SDS011;7557;51.698;3.942;2023-04-24T08:09:27;4.07;;;2.27;;
9222;SDS011;7557;51.698;3.942;2023-04-24T08:11:54;9.37;;;3.43;;
9222;SDS011;7557;51.698;3.942;2023-04-24T08:14:21;5.57;;;2.40;;
9222;SDS011;7557;51.698;3.942;2023-04-24T08:16:50;3.47;;;2.03;;
9222;SDS011;7557;51.698;3.942;2023-04-24T08:19:18;7.10;;;2.23;;
9222;SDS011;7557;51.698;3.942;2023-04-24T08:21:46;4.90;;;2.17;;
9222;SDS011;7557;51.698;3.942;2023-04-24T08:24:13;5.97;;;2.00;;
9222;SDS011;7557;51.698;3.942;2023-04-24T08:26:40;2.07;;;1.70;;
9222;SDS011;7557;51.698;3.942;2023-04-24T08:29:07;4.93;;;1.30;;
9222;SDS011;7557;51.698;3.942;2023-04-24T08:31:35;5.80;;;1.60;;
9222;SDS011;7557;51.698;3.942;2023-04-24T08:34:04;2.70;;;1.43;;
9222;SDS011;7557;51.698;3.942;2023-04-24T08:36:31;2.73;;;1.70;;
9222;SDS011;7557;51.698;3.942;2023-04-24T08:38:58;7.77;;;1.77;;
9222;SDS011;7557;51.698;3.942;2023-04-24T08:41:26;3.80;;;1.73;;
9222;SDS011;7557;51.698;3.942;2023-04-24T08:43:55;3.47;;;1.30;;
9222;SDS011;7557;51.698;3.942;2023-04-24T08:46:24;5.60;;;1.50;;
9222;SDS011;7557;51.698;3.942;2023-04-24T08:48:51;5.53;;;2.20;;
9222;SDS011;7557;51.698;3.942;2023-04-24T08:51:20;6.20;;;1.70;;
9222;SDS011;7557;51.698;3.942;2023-04-24T08:53:49;5.00;;;1.73;;
9222;SDS011;7557;51.698;3.942;2023-04-24T08:56:18;3.17;;;1.50;;
9222;SDS011;7557;51.698;3.942;2023-04-24T08:58:46;3.57;;;1.77;;
9222;SDS011;7557;51.698;3.942;2023-04-24T09:01:14;2.60;;;1.40;;
9222;SDS011;7557;51.698;3.942;2023-04-24T09:03:41;11.40;;;2.70;;
9222;SDS011;7557;51.698;3.942;2023-04-24T09:06:10;11.13;;;2.07;;
9222;SDS011;7557;51.698;3.942;2023-04-24T09:08:39;2.77;;;1.57;;
9222;SDS011;7557;51.698;3.942;2023-04-24T09:11:08;2.80;;;1.73;;
9222;SDS011;7557;51.698;3.942;2023-04-24T09:13:37;2.87;;;1.60;;
9222;SDS011;7557;51.698;3.942;2023-04-24T09:16:04;2.57;;;1.50;;
9222;SDS011;7557;51.698;3.942;2023-04-24T09:18:32;7.90;;;2.07;;
9222;SDS011;7557;51.698;3.942;2023-04-24T09:21:01;4.40;;;1.37;;
9222;SDS011;7557;51.698;3.942;2023-04-24T09:23:30;1.70;;;1.20;;
9222;SDS011;7557;51.698;3.942;2023-04-24T09:26:00;4.30;;;1.20;;
9222;SDS011;7557;51.698;3.942;2023-04-24T09:28:31;2.33;;;0.97;;
9222;SDS011;7557;51.698;3.942;2023-04-24T09:31:01;2.53;;;1.13;;
9222;SDS011;7557;51.698;3.942;2023-04-24T09:33:30;5.03;;;1.30;;
9222;SDS011;7557;51.698;3.942;2023-04-24T09:35:57;4.73;;;1.50;;
9222;SDS011;7557;51.698;3.942;2023-04-24T09:38:34;3.97;;;1.37;;
9222;SDS011;7557;51.698;3.942;2023-04-24T09:41:04;1.40;;;1.30;;
9222;SDS011;7557;51.698;3.942;2023-04-24T09:43:34;5.77;;;1.30;;
9222;SDS011;7557;51.698;3.942;2023-04-24T09:46:04;2.63;;;1.43;;
9222;SDS011;7557;51.698;3.942;2023-04-24T09:48:33;1.37;;;1.13;;
9222;SDS011;7557;51.698;3.942;2023-04-24T09:51:02;4.30;;;1.40;;
9222;SDS011;7557;51.698;3.942;2023-04-24T09:53:31;3.27;;;1.57;;
9222;SDS011;7557;51.698;3.942;2023-04-24T09:56:01;3.77;;;1.43;;
9222;SDS011;7557;51.698;3.942;2023-04-24T09:58:34;4.00;;;1.77;;
9222;SDS011;7557;51.698;3.942;2023-04-24T10:01:02;3.80;;;1.70;;
9222;SDS011;7557;51.698;3.942;2023-04-24T10:03:31;4.87;;;1.80;;
9222;SDS011;7557;51.698;3.942;2023-04-24T10:05:59;3.13;;;1.87;;
9222;SDS011;7557;51.698;3.942;2023-04-24T10:08:27;5.00;;;1.67;;
9222;SDS011;7557;51.698;3.942;2023-04-24T10:11:00;4.07;;;1.50;;
9222;SDS011;7557;51.698;3.942;2023-04-24T10:13:29;4.20;;;1.53;;
9222;SDS011;7557;51.698;3.942;2023-04-24T10:15:58;2.60;;;1.83;;
9222;SDS011;7557;51.698;3.942;2023-04-24T10:18:26;1.67;;;1.53;;
9222;SDS011;7557;51.698;3.942;2023-04-24T10:20:55;3.30;;;2.07;;
9222;SDS011;7557;51.698;3.942;2023-04-24T10:23:24;3.87;;;2.00;;
9222;SDS011;7557;51.698;3.942;2023-04-24T10:25:52;6.10;;;1.77;;
9222;SDS011;7557;51.698;3.942;2023-04-24T10:28:20;4.20;;;1.70;;
9222;SDS011;7557;51.698;3.942;2023-04-24T10:30:49;1.97;;;1.37;;
9222;SDS011;7557;51.698;3.942;2023-04-24T10:33:19;3.23;;;1.50;;
9222;SDS011;7557;51.698;3.942;2023-04-24T10:35:49;4.33;;;1.30;;
9222;SDS011;7557;51.698;3.942;2023-04-24T10:38:18;4.47;;;1.40;;
9222;SDS011;7557;51.698;3.942;2023-04-24T10:40:50;2.53;;;1.70;;
9222;SDS011;7557;51.698;3.942;2023-04-24T10:43:18;3.43;;;1.77;;
9222;SDS011;7557;51.698;3.942;2023-04-24T10:48:30;7.27;;;1.80;;
9222;SDS011;7557;51.698;3.942;2023-04-24T10:50:57;2.97;;;2.13;;
9222;SDS011;7557;51.698;3.942;2023-04-24T10:53:27;5.67;;;1.80;;
9222;SDS011;7557;51.698;3.942;2023-04-24T10:55:57;2.60;;;1.73;;
9222;SDS011;7557;51.698;3.942;2023-04-24T10:58:35;2.77;;;1.73;;
9222;SDS011;7557;51.698;3.942;2023-04-24T11:01:07;4.67;;;1.90;;
9222;SDS011;7557;51.698;3.942;2023-04-24T11:03:34;1.93;;;1.60;;
9222;SDS011;7557;51.698;3.942;2023-04-24T11:06:03;2.10;;;1.60;;
9222;SDS011;7557;51.698;3.942;2023-04-24T11:08:33;4.23;;;1.97;;
9222;SDS011;7557;51.698;3.942;2023-04-24T11:11:08;8.77;;;2.53;;
9222;SDS011;7557;51.698;3.942;2023-04-24T11:16:33;3.40;;;2.00;;
9222;SDS011;7557;51.698;3.942;2023-04-24T11:19:04;6.60;;;2.10;;
9222;SDS011;7557;51.698;3.942;2023-04-24T11:21:40;7.23;;;2.30;;
9222;SDS011;7557;51.698;3.942;2023-04-24T11:26:57;1.80;;;1.70;;
9222;SDS011;7557;51.698;3.942;2023-04-24T11:29:43;8.40;;;2.13;;
9222;SDS011;7557;51.698;3.942;2023-04-24T11:32:16;8.03;;;2.73;;
9222;SDS011;7557;51.698;3.942;2023-04-24T11:34:48;3.50;;;2.10;;
9222;SDS011;7557;51.698;3.942;2023-04-24T11:37:16;9.03;;;3.00;;
9222;SDS011;7557;51.698;3.942;2023-04-24T11:39:43;6.30;;;2.47;;
9222;SDS011;7557;51.698;3.942;2023-04-24T11:42:12;5.80;;;2.57;;
9222;SDS011;7557;51.698;3.942;2023-04-24T11:44:41;3.97;;;2.30;;
9222;SDS011;7557;51.698;3.942;2023-04-24T11:47:09;7.77;;;2.57;;
9222;SDS011;7557;51.698;3.942;2023-04-24T11:49:38;8.37;;;3.20;;
9222;SDS011;7557;51.698;3.942;2023-04-24T11:52:05;4.70;;;2.67;;
9222;SDS011;7557;51.698;3.942;2023-04-24T11:54:32;6.03;;;2.70;;
9222;SDS011;7557;51.698;3.942;2023-04-24T11:57:00;2.83;;;2.43;;
9222;SDS011;7557;51.698;3.942;2023-04-24T11:59:35;4.30;;;3.13;;
9222;SDS011;7557;51.698;3.942;2023-04-24T12:02:03;5.80;;;2.60;;
9222;SDS011;7557;51.698;3.942;2023-04-24T12:04:39;3.60;;;2.03;;
9222;SDS011;7557;51.698;3.942;2023-04-24T12:07:07;5.43;;;2.23;;
9222;SDS011;7557;51.698;3.942;2023-04-24T12:09:41;7.23;;;2.80;;
9222;SDS011;7557;51.698;3.942;2023-04-24T12:12:11;4.23;;;2.83;;
9222;SDS011;7557;51.698;3.942;2023-04-24T12:14:42;3.67;;;1.87;;
9222;SDS011;7557;51.698;3.942;2023-04-24T12:17:10;1.13;;;1.10;;
9222;SDS011;7557;51.698;3.942;2023-04-24T12:19:44;3.30;;;1.60;;
9222;SDS011;7557;51.698;3.942;2023-04-24T12:22:12;2.07;;;1.13;;
9222;SDS011;7557;51.698;3.942;2023-04-24T12:24:56;2.70;;;1.40;;
9222;SDS011;7557;51.698;3.942;2023-04-24T12:27:24;3.67;;;1.87;;
9222;SDS011;7557;51.698;3.942;2023-04-24T12:29:52;2.97;;;2.23;;
9222;SDS011;7557;51.698;3.942;2023-04-24T12:32:20;3.70;;;2.07;;
9222;SDS011;7557;51.698;3.942;2023-04-24T12:34:48;7.03;;;2.10;;
9222;SDS011;7557;51.698;3.942;2023-04-24T12:37:16;5.07;;;2.27;;
9222;SDS011;7557;51.698;3.942;2023-04-24T12:40:00;7.37;;;2.53;;
9222;SDS011;7557;51.698;3.942;2023-04-24T12:42:31;5.93;;;2.50;;
9222;SDS011;7557;51.698;3.942;2023-04-24T12:44:59;5.03;;;1.87;;
9222;SDS011;7557;51.698;3.942;2023-04-24T12:47:27;3.70;;;2.23;;
9222;SDS011;7557;51.698;3.942;2023-04-24T12:49:56;5.47;;;2.00;;
9222;SDS011;7557;51.698;3.942;2023-04-24T12:52:24;5.30;;;2.33;;
9222;SDS011;7557;51.698;3.942;2023-04-24T12:54:53;6.23;;;2.10;;
9222;SDS011;7557;51.698;3.942;2023-04-24T12:57:21;7.07;;;2.20;;
9222;SDS011;7557;51.698;3.942;2023-04-24T12:59:48;3.17;;;2.07;;
9222;SDS011;7557;51.698;3.942;2023-04-24T13:02:15;4.23;;;2.10;;
9222;SDS011;7557;51.698;3.942;2023-04-24T13:04:44;8.13;;;2.30;;
9222;SDS011;7557;51.698;3.942;2023-04-24T13:07:14;4.43;;;1.97;;
9222;SDS011;7557;51.698;3.942;2023-04-24T13:09:41;6.03;;;2.73;;
9222;SDS011;7557;51.698;3.942;2023-04-24T13:12:09;5.40;;;2.80;;
9222;SDS011;7557;51.698;3.942;2023-04-24T13:14:37;3.10;;;2.00;;
9222;SDS011;7557;51.698;3.942;2023-04-24T13:17:04;6.63;;;2.80;;
9222;SDS011;7557;51.698;3.942;2023-04-24T13:19:35;8.50;;;2.57;;
9222;SDS011;7557;51.698;3.942;2023-04-24T13:22:03;3.87;;;2.27;;
9222;SDS011;7557;51.698;3.942;2023-04-24T13:24:33;4.53;;;2.80;;
9222;SDS011;7557;51.698;3.942;2023-04-24T13:27:00;7.50;;;2.93;;
9222;SDS011;7557;51.698;3.942;2023-04-24T13:29:27;4.73;;;2.60;;
9222;SDS011;7557;51.698;3.942;2023-04-24T13:31:55;3.63;;;2.90;;
9222;SDS011;7557;51.698;3.942;2023-04-24T13:34:22;5.80;;;2.80;;
9222;SDS011;7557;51.698;3.942;2023-04-24T13:36:50;8.83;;;3.60;;
9222;SDS011;7557;51.698;3.942;2023-04-24T13:39:17;9.73;;;3.47;;
9222;SDS011;7557;51.698;3.942;2023-04-24T13:41:46;7.20;;;3.30;;
9222;SDS011;7557;51.698;3.942;2023-04-24T13:44:14;3.80;;;2.90;;
9222;SDS011;7557;51.698;3.942;2023-04-24T13:46:41;9.60;;;3.17;;
9222;SDS011;7557;51.698;3.942;2023-04-24T13:49:10;5.23;;;2.73;;
9222;SDS011;7557;51.698;3.942;2023-04-24T13:51:38;10.87;;;3.40;;
9222;SDS011;7557;51.698;3.942;2023-04-24T13:54:06;4.63;;;2.80;;
9222;SDS011;7557;51.698;3.942;2023-04-24T13:56:33;6.20;;;3.23;;
9222;SDS011;7557;51.698;3.942;2023-04-24T13:59:02;3.70;;;2.80;;
9222;SDS011;7557;51.698;3.942;2023-04-24T14:01:29;3.63;;;2.73;;
9222;SDS011;7557;51.698;3.942;2023-04-24T14:03:56;3.67;;;2.53;;
9222;SDS011;7557;51.698;3.942;2023-04-24T14:06:24;4.50;;;2.87;;
9222;SDS011;7557;51.698;3.942;2023-04-24T14:08:52;6.33;;;3.10;;
9222;SDS011;7557;51.698;3.942;2023-04-24T14:11:19;6.60;;;3.20;;
9222;SDS011;7557;51.698;3.942;2023-04-24T14:13:47;8.30;;;3.43;;
9222;SDS011;7557;51.698;3.942;2023-04-24T14:16:16;7.93;;;3.73;;
9222;SDS011;7557;51.698;3.942;2023-04-24T14:18:43;8.47;;;4.00;;
9222;SDS011;7557;51.698;3.942;2023-04-24T14:21:10;8.70;;;3.83;;
9222;SDS011;7557;51.698;3.942;2023-04-24T14:23:37;8.40;;;3.90;;
9222;SDS011;7557;51.698;3.942;2023-04-24T14:26:05;10.17;;;3.77;;
9222;SDS011;7557;51.698;3.942;2023-04-24T14:28:32;15.37;;;4.40;;
9222;SDS011;7557;51.698;3.942;2023-04-24T14:30:59;12.03;;;3.60;;
9222;SDS011;7557;51.698;3.942;2023-04-24T14:33:28;7.57;;;3.97;;
9222;SDS011;7557;51.698;3.942;2023-04-24T14:35:55;10.57;;;3.60;;
9222;SDS011;7557;51.698;3.942;2023-04-24T14:38:24;3.77;;;3.00;;
9222;SDS011;7557;51.698;3.942;2023-04-24T14:40:51;8.23;;;3.90;;
9222;SDS011;7557;51.698;3.942;2023-04-24T14:43:19;4.50;;;2.63;;
9222;SDS011;7557;51.698;3.942;2023-04-24T14:45:46;7.17;;;3.77;;
9222;SDS011;7557;51.698;3.942;2023-04-24T14:48:13;8.03;;;3.87;;
9222;SDS011;7557;51.698;3.942;2023-04-24T14:50:43;7.20;;;4.53;;
9222;SDS011;7557;51.698;3.942;2023-04-24T14:53:10;6.90;;;3.43;;
9222;SDS011;7557;51.698;3.942;2023-04-24T14:55:37;5.50;;;3.53;;
9222;SDS011;7557;51.698;3.942;2023-04-24T14:58:05;7.20;;;3.33;;
9222;SDS011;7557;51.698;3.942;2023-04-24T15:00:32;7.80;;;3.60;;
9222;SDS011;7557;51.698;3.942;2023-04-24T15:03:00;7.17;;;3.53;;
9222;SDS011;7557;51.698;3.942;2023-04-24T15:05:27;6.80;;;3.63;;
9222;SDS011;7557;51.698;3.942;2023-04-24T15:07:56;12.67;;;3.37;;
9222;SDS011;7557;51.698;3.942;2023-04-24T15:10:24;6.10;;;3.43;;
9222;SDS011;7557;51.698;3.942;2023-04-24T15:12:51;5.70;;;2.90;;
9222;SDS011;7557;51.698;3.942;2023-04-24T15:15:18;6.30;;;3.40;;
9222;SDS011;7557;51.698;3.942;2023-04-24T15:17:46;3.40;;;3.00;;
9222;SDS011;7557;51.698;3.942;2023-04-24T15:20:13;5.97;;;3.50;;
9222;SDS011;7557;51.698;3.942;2023-04-24T15:22:40;5.40;;;3.60;;
9222;SDS011;7557;51.698;3.942;2023-04-24T15:25:09;11.80;;;4.20;;